sensor_id;sensor_type;location;lat;lon;timestamp;pressure;altitude;pressure_sealevel;temperature;humidity
37304;BME280;23188;51.188;16.374;2023-04-05T00:02:58;100941.67;;;-0.78;88.19
37304;BME280;23188;51.188;16.374;2023-04-05T00:07:05;100940.36;;;-0.75;87.91
37304;BME280;23188;51.188;16.374;2023-04-05T00:11:10;100938.88;;;-0.78;87.96
37304;BME280;23188;51.188;16.374;2023-04-05T00:15:12;100939.04;;;-0.78;87.78
37304;BME280;23188;51.188;16.374;2023-04-05T00:19:15;100940.80;;;-0.86;88.99
37304;BME280;23188;51.188;16.374;2023-04-05T00:23:21;100939.41;;;-0.93;89.44
37304;BME280;23188;51.188;16.374;2023-04-05T00:27:27;100936.86;;;-1.04;89.54
37304;BME280;23188;51.188;16.374;2023-04-05T00:31:30;100932.86;;;-1.12;88.94
37304;BME280;23188;51.188;16.374;2023-04-05T00:35:33;100929.88;;;-1.03;89.18
37304;BME280;23188;51.188;16.374;2023-04-05T00:39:39;100930.47;;;-0.98;88.68
37304;BME280;23188;51.188;16.374;2023-04-05T00:43:42;100924.34;;;-0.97;88.63
37304;BME280;23188;51.188;16.374;2023-04-05T00:47:46;100925.45;;;-0.92;88.79
37304;BME280;23188;51.188;16.374;2023-04-05T00:51:49;100920.02;;;-0.83;89.16
37304;BME280;23188;51.188;16.374;2023-04-05T00:55:53;100924.54;;;-0.83;89.45
37304;BME280;23188;51.188;16.374;2023-04-05T01:00:00;100922.30;;;-0.84;89.76
37304;BME280;23188;51.188;16.374;2023-04-05T01:04:14;100919.98;;;-0.96;90.62
37304;BME280;23188;51.188;16.374;2023-04-05T01:12:45;100924.52;;;-1.12;91.90
37304;BME280;23188;51.188;16.374;2023-04-05T01:16:49;100923.44;;;-1.10;91.94
37304;BME280;23188;51.188;16.374;2023-04-05T01:21:20;100917.39;;;-1.12;91.26
37304;BME280;23188;51.188;16.374;2023-04-05T01:38:24;100906.88;;;-1.32;92.86
37304;BME280;23188;51.188;16.374;2023-04-05T01:42:29;100901.29;;;-1.40;93.16
37304;BME280;23188;51.188;16.374;2023-04-05T01:46:33;100894.05;;;-1.43;93.29
37304;BME280;23188;51.188;16.374;2023-04-05T01:50:36;100898.39;;;-1.50;93.46
37304;BME280;23188;51.188;16.374;2023-04-05T01:54:39;100895.35;;;-1.47;93.32
37304;BME280;23188;51.188;16.374;2023-04-05T01:58:42;100901.39;;;-1.36;92.81
37304;BME280;23188;51.188;16.374;2023-04-05T02:02:46;100895.84;;;-1.37;92.61
37304;BME280;23188;51.188;16.374;2023-04-05T02:06:50;100891.49;;;-1.38;92.57
37304;BME280;23188;51.188;16.374;2023-04-05T02:11:13;100893.98;;;-1.32;91.76
37304;BME280;23188;51.188;16.374;2023-04-05T02:15:16;100889.90;;;-1.29;91.92
37304;BME280;23188;51.188;16.374;2023-04-05T02:19:21;100883.67;;;-1.22;92.06
37304;BME280;23188;51.188;16.374;2023-04-05T02:23:25;100888.98;;;-1.18;91.61
37304;BME280;23188;51.188;16.374;2023-04-05T02:27:30;100880.94;;;-1.10;91.24
37304;BME280;23188;51.188;16.374;2023-04-05T02:31:35;100874.71;;;-0.96;90.34
37304;BME280;23188;51.188;16.374;2023-04-05T02:35:37;100863.41;;;-0.90;89.16
37304;BME280;23188;51.188;16.374;2023-04-05T02:39:41;100868.23;;;-0.88;88.35
37304;BME280;23188;51.188;16.374;2023-04-05T02:43:44;100870.33;;;-0.81;87.92
37304;BME280;23188;51.188;16.374;2023-04-05T02:47:48;100872.67;;;-0.77;86.95
37304;BME280;23188;51.188;16.374;2023-04-05T02:51:51;100877.02;;;-0.84;85.94
37304;BME280;23188;51.188;16.374;2023-04-05T02:55:55;100871.66;;;-1.00;86.11
37304;BME280;23188;51.188;16.374;2023-04-05T02:59:59;100865.79;;;-1.09;87.13
37304;BME280;23188;51.188;16.374;2023-04-05T03:04:02;100865.39;;;-1.22;88.66
37304;BME280;23188;51.188;16.374;2023-04-05T03:08:06;100857.16;;;-1.20;89.13
37304;BME280;23188;51.188;16.374;2023-04-05T03:12:12;100852.08;;;-1.19;88.56
37304;BME280;23188;51.188;16.374;2023-04-05T03:16:15;100849.55;;;-1.22;88.12
37304;BME280;23188;51.188;16.374;2023-04-05T03:20:18;100844.45;;;-1.20;87.92
37304;BME280;23188;51.188;16.374;2023-04-05T03:24:24;100846.28;;;-1.16;87.78
37304;BME280;23188;51.188;16.374;2023-04-05T03:28:29;100846.52;;;-1.18;87.93
37304;BME280;23188;51.188;16.374;2023-04-05T03:32:39;100844.74;;;-1.24;87.98
37304;BME280;23188;51.188;16.374;2023-04-05T03:36:43;100843.84;;;-1.23;88.17
37304;BME280;23188;51.188;16.374;2023-04-05T03:40:50;100839.45;;;-1.22;88.36
37304;BME280;23188;51.188;16.374;2023-04-05T03:44:53;100831.84;;;-1.17;88.47
37304;BME280;23188;51.188;16.374;2023-04-05T03:48:58;100834.73;;;-1.13;89.01
37304;BME280;23188;51.188;16.374;2023-04-05T03:53:02;100838.91;;;-1.29;90.63
37304;BME280;23188;51.188;16.374;2023-04-05T03:57:06;100843.96;;;-1.36;92.10
37304;BME280;23188;51.188;16.374;2023-04-05T04:01:10;100849.43;;;-1.24;92.74
37304;BME280;23188;51.188;16.374;2023-04-05T04:05:15;100853.92;;;-1.15;92.69
37304;BME280;23188;51.188;16.374;2023-04-05T04:09:23;100860.47;;;-1.05;92.99
37304;BME280;23188;51.188;16.374;2023-04-05T04:13:28;100858.77;;;-1.00;92.54
37304;BME280;23188;51.188;16.374;2023-04-05T04:17:33;100859.59;;;-0.97;92.40
37304;BME280;23188;51.188;16.374;2023-04-05T04:21:37;100863.20;;;-0.89;92.08
37304;BME280;23188;51.188;16.374;2023-04-05T04:25:41;100860.83;;;-0.77;91.96
37304;BME280;23188;51.188;16.374;2023-04-05T04:29:48;100862.73;;;-0.70;92.58
37304;BME280;23188;51.188;16.374;2023-04-05T04:33:51;100862.63;;;-0.59;94.02
37304;BME280;23188;51.188;16.374;2023-04-05T04:37:56;100866.49;;;-0.47;93.55
37304;BME280;23188;51.188;16.374;2023-04-05T04:42:00;100865.59;;;-0.32;93.13
37304;BME280;23188;51.188;16.374;2023-04-05T04:46:03;100867.53;;;-0.21;92.96
37304;BME280;23188;51.188;16.374;2023-04-05T04:50:13;100862.48;;;-0.02;93.17
37304;BME280;23188;51.188;16.374;2023-04-05T04:54:16;100862.33;;;0.16;91.52
37304;BME280;23188;51.188;16.374;2023-04-05T04:58:22;100862.61;;;0.19;91.34
37304;BME280;23188;51.188;16.374;2023-04-05T05:02:26;100862.09;;;0.12;91.97
37304;BME280;23188;51.188;16.374;2023-04-05T05:06:33;100862.05;;;0.01;92.09
37304;BME280;23188;51.188;16.374;2023-04-05T05:10:36;100859.13;;;0.06;92.88
37304;BME280;23188;51.188;16.374;2023-04-05T05:14:40;100856.88;;;0.86;93.96
37304;BME280;23188;51.188;16.374;2023-04-05T05:18:49;100855.92;;;1.81;89.01
37304;BME280;23188;51.188;16.374;2023-04-05T05:22:58;100854.20;;;2.42;83.99
37304;BME280;23188;51.188;16.374;2023-04-05T05:27:05;100850.73;;;2.64;79.96
37304;BME280;23188;51.188;16.374;2023-04-05T05:31:08;100854.32;;;2.58;80.00
37304;BME280;23188;51.188;16.374;2023-04-05T05:35:11;100854.37;;;2.43;79.75
37304;BME280;23188;51.188;16.374;2023-04-05T05:39:14;100858.61;;;2.24;80.07
37304;BME280;23188;51.188;16.374;2023-04-05T05:43:18;100854.42;;;2.14;80.93
37304;BME280;23188;51.188;16.374;2023-04-05T05:47:22;100849.64;;;2.01;81.53
37304;BME280;23188;51.188;16.374;2023-04-05T05:51:26;100847.06;;;1.95;82.07
37304;BME280;23188;51.188;16.374;2023-04-05T05:55:29;100847.75;;;1.90;82.80
37304;BME280;23188;51.188;16.374;2023-04-05T05:59:32;100848.42;;;1.87;83.63
37304;BME280;23188;51.188;16.374;2023-04-05T06:03:35;100847.11;;;1.84;84.37
37304;BME280;23188;51.188;16.374;2023-04-05T06:07:39;100846.61;;;1.83;85.18
37304;BME280;23188;51.188;16.374;2023-04-05T06:11:42;100846.00;;;1.91;84.93
37304;BME280;23188;51.188;16.374;2023-04-05T06:16:00;100848.69;;;1.93;85.32
37304;BME280;23188;51.188;16.374;2023-04-05T06:20:05;100843.80;;;1.98;85.21
37304;BME280;23188;51.188;16.374;2023-04-05T06:24:09;100848.17;;;2.08;85.20
37304;BME280;23188;51.188;16.374;2023-04-05T06:28:12;100849.85;;;2.15;85.17
37304;BME280;23188;51.188;16.374;2023-04-05T06:32:15;100846.79;;;2.21;84.46
37304;BME280;23188;51.188;16.374;2023-04-05T06:36:20;100857.50;;;2.25;84.74
37304;BME280;23188;51.188;16.374;2023-04-05T06:40:23;100858.14;;;2.31;85.93
37304;BME280;23188;51.188;16.374;2023-04-05T06:44:26;100856.94;;;2.40;84.32
37304;BME280;23188;51.188;16.374;2023-04-05T06:48:32;100857.82;;;2.45;83.55
37304;BME280;23188;51.188;16.374;2023-04-05T06:52:36;100857.65;;;2.53;84.48
37304;BME280;23188;51.188;16.374;2023-04-05T06:56:39;100859.39;;;2.49;84.07
37304;BME280;23188;51.188;16.374;2023-04-05T07:00:45;100865.08;;;2.52;84.36
37304;BME280;23188;51.188;16.374;2023-04-05T07:04:50;100862.94;;;2.48;84.12
37304;BME280;23188;51.188;16.374;2023-04-05T07:08:57;100861.79;;;2.51;84.66
37304;BME280;23188;51.188;16.374;2023-04-05T07:13:01;100864.52;;;2.61;85.07
37304;BME280;23188;51.188;16.374;2023-04-05T07:17:05;100864.07;;;2.77;85.26
37304;BME280;23188;51.188;16.374;2023-04-05T07:21:10;100863.83;;;3.01;85.34
37304;BME280;23188;51.188;16.374;2023-04-05T07:25:14;100857.36;;;3.30;85.79
37304;BME280;23188;51.188;16.374;2023-04-05T07:29:17;100853.82;;;3.64;84.37
37304;BME280;23188;51.188;16.374;2023-04-05T07:33:20;100854.05;;;3.83;80.83
37304;BME280;23188;51.188;16.374;2023-04-05T07:37:24;100854.70;;;3.80;76.73
37304;BME280;23188;51.188;16.374;2023-04-05T07:41:28;100850.09;;;3.85;75.58
37304;BME280;23188;51.188;16.374;2023-04-05T07:45:38;100852.79;;;3.99;76.32
37304;BME280;23188;51.188;16.374;2023-04-05T07:49:41;100857.23;;;4.10;75.45
37304;BME280;23188;51.188;16.374;2023-04-05T07:53:45;100857.86;;;4.19;75.20
37304;BME280;23188;51.188;16.374;2023-04-05T07:57:48;100855.73;;;4.43;76.15
37304;BME280;23188;51.188;16.374;2023-04-05T08:01:52;100854.33;;;4.54;75.67
37304;BME280;23188;51.188;16.374;2023-04-05T08:06:14;100854.48;;;4.59;74.65
37304;BME280;23188;51.188;16.374;2023-04-05T08:10:20;100860.99;;;4.58;76.89
37304;BME280;23188;51.188;16.374;2023-04-05T08:14:23;100864.30;;;4.63;74.71
37304;BME280;23188;51.188;16.374;2023-04-05T08:18:28;100861.65;;;4.59;74.12
37304;BME280;23188;51.188;16.374;2023-04-05T08:22:31;100862.21;;;4.58;76.11
37304;BME280;23188;51.188;16.374;2023-04-05T08:26:35;100855.61;;;4.57;76.44
37304;BME280;23188;51.188;16.374;2023-04-05T08:30:39;100856.52;;;4.64;76.72
37304;BME280;23188;51.188;16.374;2023-04-05T08:34:43;100848.20;;;4.91;77.07
37304;BME280;23188;51.188;16.374;2023-04-05T08:38:46;100837.71;;;5.14;75.26
37304;BME280;23188;51.188;16.374;2023-04-05T08:43:02;100837.52;;;5.32;76.25
37304;BME280;23188;51.188;16.374;2023-04-05T08:47:11;100839.35;;;5.59;75.19
37304;BME280;23188;51.188;16.374;2023-04-05T08:51:24;100837.42;;;5.75;71.73
37304;BME280;23188;51.188;16.374;2023-04-05T08:55:32;100835.55;;;6.08;71.40
37304;BME280;23188;51.188;16.374;2023-04-05T08:59:37;100830.20;;;6.55;70.23
37304;BME280;23188;51.188;16.374;2023-04-05T09:03:43;100826.37;;;6.85;67.95
37304;BME280;23188;51.188;16.374;2023-04-05T09:07:49;100827.09;;;6.94;66.82
37304;BME280;23188;51.188;16.374;2023-04-05T09:11:53;100825.21;;;6.93;65.58
37304;BME280;23188;51.188;16.374;2023-04-05T09:16:00;100822.82;;;6.86;64.95
37304;BME280;23188;51.188;16.374;2023-04-05T09:20:03;100822.52;;;6.81;64.48
37304;BME280;23188;51.188;16.374;2023-04-05T09:24:06;100821.66;;;6.90;65.72
37304;BME280;23188;51.188;16.374;2023-04-05T09:28:10;100816.16;;;6.97;63.33
37304;BME280;23188;51.188;16.374;2023-04-05T09:32:15;100813.73;;;7.00;64.63
37304;BME280;23188;51.188;16.374;2023-04-05T09:36:18;100813.92;;;6.93;64.04
37304;BME280;23188;51.188;16.374;2023-04-05T09:40:22;100808.42;;;6.85;64.54
37304;BME280;23188;51.188;16.374;2023-04-05T09:44:25;100809.15;;;6.87;64.94
37304;BME280;23188;51.188;16.374;2023-04-05T09:48:45;100801.75;;;7.06;64.04
37304;BME280;23188;51.188;16.374;2023-04-05T09:52:49;100798.93;;;7.06;61.69
37304;BME280;23188;51.188;16.374;2023-04-05T09:56:53;100791.61;;;7.19;64.73
37304;BME280;23188;51.188;16.374;2023-04-05T10:00:59;100788.65;;;7.19;63.87
37304;BME280;23188;51.188;16.374;2023-04-05T10:05:22;100783.86;;;7.31;64.11
37304;BME280;23188;51.188;16.374;2023-04-05T10:09:25;100781.77;;;7.74;64.69
37304;BME280;23188;51.188;16.374;2023-04-05T10:13:30;100781.92;;;8.06;62.71
37304;BME280;23188;51.188;16.374;2023-04-05T10:17:38;100781.48;;;8.33;63.10
37304;BME280;23188;51.188;16.374;2023-04-05T10:21:47;100784.55;;;8.12;59.84
37304;BME280;23188;51.188;16.374;2023-04-05T10:30:04;100771.55;;;8.02;60.97
37304;BME280;23188;51.188;16.374;2023-04-05T10:34:19;100761.88;;;8.13;61.77
37304;BME280;23188;51.188;16.374;2023-04-05T10:38:34;100764.02;;;7.99;59.99
37304;BME280;23188;51.188;16.374;2023-04-05T10:42:41;100767.02;;;7.73;59.90
37304;BME280;23188;51.188;16.374;2023-04-05T10:46:45;100757.42;;;7.63;60.83
37304;BME280;23188;51.188;16.374;2023-04-05T10:50:49;100757.05;;;7.54;63.29
37304;BME280;23188;51.188;16.374;2023-04-05T10:54:53;100757.79;;;7.24;63.93
37304;BME280;23188;51.188;16.374;2023-04-05T10:58:59;100758.77;;;7.08;64.45
37304;BME280;23188;51.188;16.374;2023-04-05T11:03:03;100754.16;;;7.11;64.44
37304;BME280;23188;51.188;16.374;2023-04-05T11:07:15;100757.25;;;7.25;64.40
37304;BME280;23188;51.188;16.374;2023-04-05T11:11:21;100755.77;;;7.23;63.04
37304;BME280;23188;51.188;16.374;2023-04-05T11:24:06;100755.59;;;7.87;65.04
37304;BME280;23188;51.188;16.374;2023-04-05T11:28:21;100750.97;;;7.67;61.76
37304;BME280;23188;51.188;16.374;2023-04-05T11:32:40;100745.61;;;7.59;61.10
37304;BME280;23188;51.188;16.374;2023-04-05T11:36:47;100743.55;;;7.67;61.83
37304;BME280;23188;51.188;16.374;2023-04-05T11:41:05;100741.55;;;7.77;62.10
37304;BME280;23188;51.188;16.374;2023-04-05T11:45:09;100733.13;;;7.64;62.68
37304;BME280;23188;51.188;16.374;2023-04-05T11:49:13;100729.88;;;7.68;64.29
37304;BME280;23188;51.188;16.374;2023-04-05T11:53:17;100727.04;;;8.16;66.33
37304;BME280;23188;51.188;16.374;2023-04-05T11:57:40;100717.19;;;8.49;60.57
37304;BME280;23188;51.188;16.374;2023-04-05T12:01:44;100719.19;;;8.72;60.30
37304;BME280;23188;51.188;16.374;2023-04-05T12:10:03;100715.48;;;8.56;58.35
37304;BME280;23188;51.188;16.374;2023-04-05T12:14:08;100720.75;;;8.15;60.25
37304;BME280;23188;51.188;16.374;2023-04-05T12:18:14;100721.96;;;7.65;60.98
37304;BME280;23188;51.188;16.374;2023-04-05T12:22:18;100722.80;;;7.22;64.66
37304;BME280;23188;51.188;16.374;2023-04-05T12:26:21;100722.06;;;6.87;66.30
37304;BME280;23188;51.188;16.374;2023-04-05T12:30:26;100721.69;;;6.66;65.92
37304;BME280;23188;51.188;16.374;2023-04-05T12:34:29;100719.73;;;6.79;65.50
37304;BME280;23188;51.188;16.374;2023-04-05T12:38:32;100715.83;;;6.91;65.48
37304;BME280;23188;51.188;16.374;2023-04-05T12:42:37;100711.20;;;7.07;64.81
37304;BME280;23188;51.188;16.374;2023-04-05T12:46:46;100708.83;;;7.11;64.14
37304;BME280;23188;51.188;16.374;2023-04-05T12:50:50;100710.25;;;7.14;65.32
37304;BME280;23188;51.188;16.374;2023-04-05T12:54:54;100712.80;;;6.77;67.67
37304;BME280;23188;51.188;16.374;2023-04-05T12:58:58;100713.86;;;6.50;69.90
37304;BME280;23188;51.188;16.374;2023-04-05T13:03:01;100720.56;;;6.34;71.08
37304;BME280;23188;51.188;16.374;2023-04-05T13:07:04;100726.35;;;6.31;71.16
37304;BME280;23188;51.188;16.374;2023-04-05T13:11:07;100720.21;;;6.37;71.04
37304;BME280;23188;51.188;16.374;2023-04-05T13:15:10;100717.73;;;6.50;71.95
37304;BME280;23188;51.188;16.374;2023-04-05T13:19:14;100710.52;;;6.61;72.60
37304;BME280;23188;51.188;16.374;2023-04-05T13:23:17;100708.20;;;6.71;71.46
37304;BME280;23188;51.188;16.374;2023-04-05T13:27:19;100701.85;;;6.71;70.28
37304;BME280;23188;51.188;16.374;2023-04-05T13:31:25;100700.42;;;6.74;70.29
37304;BME280;23188;51.188;16.374;2023-04-05T13:35:29;100706.16;;;6.79;69.40
37304;BME280;23188;51.188;16.374;2023-04-05T13:39:32;100704.03;;;6.85;70.19
37304;BME280;23188;51.188;16.374;2023-04-05T13:43:35;100700.14;;;6.85;69.69
37304;BME280;23188;51.188;16.374;2023-04-05T13:47:39;100695.77;;;6.85;68.63
37304;BME280;23188;51.188;16.374;2023-04-05T13:51:42;100694.52;;;6.88;68.30
37304;BME280;23188;51.188;16.374;2023-04-05T13:55:45;100696.41;;;6.95;69.05
37304;BME280;23188;51.188;16.374;2023-04-05T13:59:48;100696.66;;;7.02;71.32
37304;BME280;23188;51.188;16.374;2023-04-05T14:03:51;100697.71;;;7.11;72.49
37304;BME280;23188;51.188;16.374;2023-04-05T14:07:55;100695.20;;;7.24;70.98
37304;BME280;23188;51.188;16.374;2023-04-05T14:11:59;100691.27;;;7.39;69.11
37304;BME280;23188;51.188;16.374;2023-04-05T14:16:05;100691.55;;;7.52;66.09
37304;BME280;23188;51.188;16.374;2023-04-05T14:20:09;100691.80;;;7.48;65.99
37304;BME280;23188;51.188;16.374;2023-04-05T14:24:12;100693.84;;;7.43;66.14
37304;BME280;23188;51.188;16.374;2023-04-05T14:28:15;100690.09;;;7.21;66.64
37304;BME280;23188;51.188;16.374;2023-04-05T14:32:18;100692.29;;;6.99;66.29
37304;BME280;23188;51.188;16.374;2023-04-05T14:36:21;100698.80;;;6.81;68.31
37304;BME280;23188;51.188;16.374;2023-04-05T14:40:24;100701.19;;;6.70;71.29
37304;BME280;23188;51.188;16.374;2023-04-05T14:44:27;100694.61;;;6.68;71.97
37304;BME280;23188;51.188;16.374;2023-04-05T14:48:30;100688.46;;;6.74;69.99
37304;BME280;23188;51.188;16.374;2023-04-05T14:52:35;100688.21;;;6.84;70.02
37304;BME280;23188;51.188;16.374;2023-04-05T14:56:38;100689.56;;;6.97;70.21
37304;BME280;23188;51.188;16.374;2023-04-05T15:00:45;100690.77;;;7.15;70.58
37304;BME280;23188;51.188;16.374;2023-04-05T15:04:50;100691.95;;;7.36;70.06
37304;BME280;23188;51.188;16.374;2023-04-05T15:08:52;100692.22;;;7.49;68.43
37304;BME280;23188;51.188;16.374;2023-04-05T15:12:55;100689.11;;;7.54;68.18
37304;BME280;23188;51.188;16.374;2023-04-05T15:16:58;100690.98;;;7.64;67.16
37304;BME280;23188;51.188;16.374;2023-04-05T15:21:01;100682.60;;;7.76;65.63
37304;BME280;23188;51.188;16.374;2023-04-05T15:25:05;100680.09;;;7.88;64.10
37304;BME280;23188;51.188;16.374;2023-04-05T15:29:08;100675.33;;;8.21;63.56
37304;BME280;23188;51.188;16.374;2023-04-05T15:33:11;100678.84;;;8.57;61.34
37304;BME280;23188;51.188;16.374;2023-04-05T15:37:14;100676.50;;;8.76;60.79
37304;BME280;23188;51.188;16.374;2023-04-05T15:41:17;100676.86;;;8.81;60.46
37304;BME280;23188;51.188;16.374;2023-04-05T15:45:19;100675.30;;;8.83;62.41
37304;BME280;23188;51.188;16.374;2023-04-05T15:49:22;100672.09;;;8.68;61.39
37304;BME280;23188;51.188;16.374;2023-04-05T15:53:25;100675.14;;;8.49;63.85
37304;BME280;23188;51.188;16.374;2023-04-05T15:57:28;100683.42;;;8.38;67.27
37304;BME280;23188;51.188;16.374;2023-04-05T16:01:31;100684.22;;;8.23;65.06
37304;BME280;23188;51.188;16.374;2023-04-05T16:05:34;100684.52;;;8.15;65.47
37304;BME280;23188;51.188;16.374;2023-04-05T16:09:37;100685.21;;;8.07;66.50
37304;BME280;23188;51.188;16.374;2023-04-05T16:13:40;100684.34;;;8.04;65.02
37304;BME280;23188;51.188;16.374;2023-04-05T16:17:43;100680.18;;;8.06;64.04
37304;BME280;23188;51.188;16.374;2023-04-05T16:21:47;100678.52;;;8.04;63.54
37304;BME280;23188;51.188;16.374;2023-04-05T16:25:54;100681.21;;;8.09;64.73
37304;BME280;23188;51.188;16.374;2023-04-05T16:29:58;100677.08;;;8.10;63.57
37304;BME280;23188;51.188;16.374;2023-04-05T16:34:01;100678.66;;;8.08;64.95
37304;BME280;23188;51.188;16.374;2023-04-05T16:38:04;100676.79;;;8.04;65.08
37304;BME280;23188;51.188;16.374;2023-04-05T16:42:08;100680.77;;;7.97;64.57
37304;BME280;23188;51.188;16.374;2023-04-05T16:46:11;100681.09;;;7.92;66.18
37304;BME280;23188;51.188;16.374;2023-04-05T16:50:14;100682.98;;;7.90;66.68
37304;BME280;23188;51.188;16.374;2023-04-05T16:54:17;100683.27;;;7.85;67.41
37304;BME280;23188;51.188;16.374;2023-04-05T16:58:20;100687.95;;;7.78;68.32
37304;BME280;23188;51.188;16.374;2023-04-05T17:02:23;100691.38;;;7.63;68.12
37304;BME280;23188;51.188;16.374;2023-04-05T17:06:26;100689.92;;;7.44;69.73
37304;BME280;23188;51.188;16.374;2023-04-05T17:10:29;100685.73;;;7.23;69.92
37304;BME280;23188;51.188;16.374;2023-04-05T17:14:32;100686.96;;;7.08;71.38
37304;BME280;23188;51.188;16.374;2023-04-05T17:18:38;100686.37;;;6.92;72.32
37304;BME280;23188;51.188;16.374;2023-04-05T17:22:41;100688.79;;;6.75;73.47
37304;BME280;23188;51.188;16.374;2023-04-05T17:26:45;100689.73;;;6.64;73.04
37304;BME280;23188;51.188;16.374;2023-04-05T17:30:48;100689.95;;;6.58;73.19
37304;BME280;23188;51.188;16.374;2023-04-05T17:34:53;100696.17;;;6.51;74.07
37304;BME280;23188;51.188;16.374;2023-04-05T17:38:56;100694.72;;;6.45;73.60
37304;BME280;23188;51.188;16.374;2023-04-05T17:42:59;100699.76;;;6.40;73.17
37304;BME280;23188;51.188;16.374;2023-04-05T17:47:03;100706.32;;;6.33;73.15
37304;BME280;23188;51.188;16.374;2023-04-05T17:51:13;100709.09;;;6.15;74.37
37304;BME280;23188;51.188;16.374;2023-04-05T17:55:17;100716.80;;;5.90;75.60
37304;BME280;23188;51.188;16.374;2023-04-05T17:59:20;100721.92;;;5.60;75.67
37304;BME280;23188;51.188;16.374;2023-04-05T18:03:27;100725.58;;;5.34;76.17
37304;BME280;23188;51.188;16.374;2023-04-05T18:07:37;100735.07;;;5.07;75.93
37304;BME280;23188;51.188;16.374;2023-04-05T18:11:41;100739.11;;;4.90;75.42
37304;BME280;23188;51.188;16.374;2023-04-05T18:15:46;100741.77;;;4.79;75.57
37304;BME280;23188;51.188;16.374;2023-04-05T18:19:53;100745.80;;;4.68;75.71
37304;BME280;23188;51.188;16.374;2023-04-05T18:23:56;100748.11;;;4.57;75.73
37304;BME280;23188;51.188;16.374;2023-04-05T18:28:02;100747.66;;;4.44;75.95
37304;BME280;23188;51.188;16.374;2023-04-05T18:32:22;100752.31;;;4.31;75.83
37304;BME280;23188;51.188;16.374;2023-04-05T18:36:33;100758.05;;;4.22;76.28
37304;BME280;23188;51.188;16.374;2023-04-05T18:40:38;100764.02;;;4.14;75.56
37304;BME280;23188;51.188;16.374;2023-04-05T18:44:42;100770.40;;;4.13;75.87
37304;BME280;23188;51.188;16.374;2023-04-05T18:48:45;100776.42;;;4.04;76.57
37304;BME280;23188;51.188;16.374;2023-04-05T18:52:48;100781.03;;;3.92;76.07
37304;BME280;23188;51.188;16.374;2023-04-05T18:56:51;100780.64;;;3.81;76.05
37304;BME280;23188;51.188;16.374;2023-04-05T19:00:54;100782.17;;;3.74;76.55
37304;BME280;23188;51.188;16.374;2023-04-05T19:04:57;100778.80;;;3.59;77.50
37304;BME280;23188;51.188;16.374;2023-04-05T19:09:01;100778.58;;;3.48;77.51
37304;BME280;23188;51.188;16.374;2023-04-05T19:13:04;100778.53;;;3.41;77.28
37304;BME280;23188;51.188;16.374;2023-04-05T19:17:08;100783.52;;;3.36;77.41
37304;BME280;23188;51.188;16.374;2023-04-05T19:21:14;100786.00;;;3.30;77.38
37304;BME280;23188;51.188;16.374;2023-04-05T19:25:17;100783.71;;;3.18;77.71
37304;BME280;23188;51.188;16.374;2023-04-05T19:29:20;100783.98;;;3.08;78.07
37304;BME280;23188;51.188;16.374;2023-04-05T19:33:23;100784.31;;;2.96;78.85
37304;BME280;23188;51.188;16.374;2023-04-05T19:37:28;100786.45;;;2.87;78.80
37304;BME280;23188;51.188;16.374;2023-04-05T19:41:31;100793.02;;;2.80;78.85
37304;BME280;23188;51.188;16.374;2023-04-05T19:45:34;100789.19;;;2.71;79.17
37304;BME280;23188;51.188;16.374;2023-04-05T19:49:38;100789.81;;;2.64;79.72
37304;BME280;23188;51.188;16.374;2023-04-05T19:53:46;100789.77;;;2.56;79.93
37304;BME280;23188;51.188;16.374;2023-04-05T19:57:50;100791.42;;;2.50;81.74
37304;BME280;23188;51.188;16.374;2023-04-05T20:01:53;100790.11;;;2.43;81.27
37304;BME280;23188;51.188;16.374;2023-04-05T20:10:13;100788.52;;;2.26;81.37
37304;BME280;23188;51.188;16.374;2023-04-05T20:14:19;100788.00;;;2.21;82.21
37304;BME280;23188;51.188;16.374;2023-04-05T20:18:26;100787.51;;;2.16;84.76
37304;BME280;23188;51.188;16.374;2023-04-05T20:22:31;100783.51;;;2.14;85.96
37304;BME280;23188;51.188;16.374;2023-04-05T20:26:35;100778.98;;;2.20;85.84
37304;BME280;23188;51.188;16.374;2023-04-05T20:30:40;100774.29;;;2.22;85.86
37304;BME280;23188;51.188;16.374;2023-04-05T20:34:44;100773.60;;;2.27;86.02
37304;BME280;23188;51.188;16.374;2023-04-05T20:38:48;100770.42;;;2.28;86.17
37304;BME280;23188;51.188;16.374;2023-04-05T20:42:51;100771.62;;;2.19;86.23
37304;BME280;23188;51.188;16.374;2023-04-05T20:46:55;100773.73;;;2.14;86.55
37304;BME280;23188;51.188;16.374;2023-04-05T20:51:02;100774.61;;;2.09;86.78
37304;BME280;23188;51.188;16.374;2023-04-05T20:55:05;100771.53;;;2.12;87.06
37304;BME280;23188;51.188;16.374;2023-04-05T20:59:09;100774.70;;;2.12;85.93
37304;BME280;23188;51.188;16.374;2023-04-05T21:03:13;100774.00;;;2.07;84.77
37304;BME280;23188;51.188;16.374;2023-04-05T21:07:17;100773.17;;;1.97;83.22
37304;BME280;23188;51.188;16.374;2023-04-05T21:11:20;100774.96;;;1.77;82.58
37304;BME280;23188;51.188;16.374;2023-04-05T21:15:24;100772.17;;;1.67;82.62
37304;BME280;23188;51.188;16.374;2023-04-05T21:19:33;100769.38;;;1.62;82.79
37304;BME280;23188;51.188;16.374;2023-04-05T21:23:36;100770.91;;;1.63;82.78
37304;BME280;23188;51.188;16.374;2023-04-05T21:27:39;100770.51;;;1.60;82.64
37304;BME280;23188;51.188;16.374;2023-04-05T21:31:43;100769.10;;;1.55;83.79
37304;BME280;23188;51.188;16.374;2023-04-05T21:35:46;100767.15;;;1.51;84.75
37304;BME280;23188;51.188;16.374;2023-04-05T21:39:49;100768.02;;;1.46;85.42
37304;BME280;23188;51.188;16.374;2023-04-05T21:43:53;100769.45;;;1.40;85.80
37304;BME280;23188;51.188;16.374;2023-04-05T21:47:56;100771.34;;;1.32;86.44
37304;BME280;23188;51.188;16.374;2023-04-05T21:51:59;100769.68;;;1.24;87.54
37304;BME280;23188;51.188;16.374;2023-04-05T21:56:03;100770.10;;;1.17;87.99